Track Соколов Дмитрий

Time Latitude Longitude Accuracy (66% radius in meters) Altitude (meters) Speed (km/hour) Bearing (degrees) Battery (%) GPS flag
08:00:00 58.655761 49.679797 0 0 0 0 1 delete
07:59:59 58.655773 49.679700 0 0 0 0 1 delete
07:59:58 58.655781 49.679606 0 0 0 0 1 delete
07:59:57 58.655789 49.679502 0 0 0 0 1 delete
07:59:56 58.655785 49.679403 0 0 0 0 1 delete
07:59:55 58.655761 49.679315 0 0 0 0 1 delete
07:59:54 58.655716 49.679243 0 0 0 0 1 delete
07:59:53 58.655665 49.679180 0 0 0 0 1 delete
07:59:52 58.655613 49.679117 0 0 0 0 1 delete
07:59:51 58.655565 49.679060 0 0 0 0 1 delete
07:59:50 58.655516 49.679005 0 0 0 0 1 delete
07:59:49 58.655465 49.678955 0 0 0 0 1 delete
07:59:48 58.655413 49.678908 0 0 0 0 1 delete
07:59:47 58.655360 49.678880 0 0 0 0 1 delete
07:59:46 58.655312 49.678874 0 0 0 0 1 delete
07:59:45 58.655269 49.678895 0 0 0 0 1 delete
07:59:44 58.655234 49.678933 0 0 0 0 1 delete
07:59:43 58.655204 49.678975 0 0 0 0 1 delete
07:59:42 58.655177 49.679014 0 0 0 0 1 delete
07:59:41 58.655152 49.679045 0 0 0 0 1 delete
07:59:40 58.655130 49.679070 0 0 0 0 1 delete
07:59:39 58.655110 49.679094 0 0 0 0 1 delete
07:59:38 58.655098 49.679119 0 0 0 0 1 delete
07:59:37 58.655094 49.679144 0 0 0 0 1 delete
07:59:36 58.655095 49.679165 0 0 0 0 1 delete
07:59:35 58.655101 49.679181 0 0 0 0 1 delete
07:59:34 58.655105 49.679193 0 0 0 0 1 delete
07:59:33 58.655109 49.679204 0 0 0 0 1 delete
07:59:32 58.655112 49.679214 0 0 0 0 1 delete
07:59:31 58.655112 49.679221 0 0 0 0 1 delete
07:59:30 58.655111 49.679225 0 0 0 0 1 delete
07:59:29 58.655110 49.679229 0 0 0 0 1 delete
07:59:28 58.655110 49.679230 0 0 0 0 1 delete
07:59:27 58.655109 49.679233 0 0 0 0 1 delete
07:59:26 58.655110 49.679235 0 0 0 0 1 delete
07:59:25 58.655109 49.679230 0 0 0 0 1 delete
07:59:24 58.655107 49.679212 0 0 0 0 1 delete
07:59:23 58.655103 49.679186 0 0 0 0 1 delete
07:59:22 58.655092 49.679166 0 0 0 0 1 delete
07:59:21 58.655070 49.679166 0 0 0 0 1 delete
07:59:20 58.655037 49.679187 0 0 0 0 1 delete
07:59:19 58.654998 49.679227 0 0 0 0 1 delete
07:59:18 58.654957 49.679269 0 0 0 0 1 delete
07:59:17 58.654913 49.679310 0 0 0 0 1 delete
07:59:16 58.654864 49.679347 0 0 0 0 1 delete
07:59:15 58.654812 49.679381 0 0 0 0 1 delete
07:59:14 58.654761 49.679394 0 0 0 0 1 delete
07:59:13 58.654713 49.679379 0 0 0 0 1 delete
07:59:12 58.654668 49.679323 0 0 0 0 1 delete
07:59:11 58.654620 49.679269 0 0 0 0 1 delete